N5448T KSRQ-KLAL
Flight info
| Callsign | N5448T |
|---|---|
| Flight time | N/A |
| Altitude | 1500 |
| Route | VFR |
| Aircraft | PA24/L-SDGRY/C |
Departure
| Time | N/A |
|---|---|
| Airport | Sarasota Bradenton International Airport (KSRQ) |
Arrival
| Time | 2026-04-21 23:48 |
|---|---|
| Airport | Lakeland Linder International Airport (KLAL) |
| Time | Latitude | Longitude | Altitude | Speed | Heading |
|---|---|---|---|---|---|
| 2026-04-21 23:30 | 28.20221 | -81.91019 | 2548 ft | 134 kts | 31° |
| 2026-04-21 23:30 | 28.21094 | -81.90620 | 2113 ft | 132 kts | 25° |
| 2026-04-21 23:31 | 28.22000 | -81.90274 | 1621 ft | 138 kts | 24° |
| 2026-04-21 23:31 | 28.22897 | -81.89944 | 1247 ft | 127 kts | 26° |
| 2026-04-21 23:31 | 28.23650 | -81.89687 | 1210 ft | 96 kts | 28° |
| 2026-04-21 23:31 | 28.24116 | -81.89267 | 1179 ft | 85 kts | 70° |
| 2026-04-21 23:32 | 28.24132 | -81.88645 | 1183 ft | 75 kts | 109° |
| 2026-04-21 23:32 | 28.23800 | -81.88199 | 1180 ft | 78 kts | 132° |
| 2026-04-21 23:32 | 28.23346 | -81.87829 | 1194 ft | 82 kts | 134° |
| 2026-04-21 23:32 | 28.22861 | -81.87465 | 1201 ft | 88 kts | 135° |
| 2026-04-21 23:33 | 28.22338 | -81.87057 | 1212 ft | 92 kts | 135° |
| 2026-04-21 23:33 | 28.21789 | -81.86666 | 1208 ft | 96 kts | 134° |
| 2026-04-21 23:33 | 28.21212 | -81.86267 | 1205 ft | 99 kts | 135° |
| 2026-04-21 23:33 | 28.20624 | -81.85835 | 1202 ft | 101 kts | 130° |
| 2026-04-21 23:34 | 28.20103 | -81.85366 | 1168 ft | 92 kts | 128° |
| 2026-04-21 23:34 | 28.19648 | -81.84891 | 1165 ft | 85 kts | 128° |
| 2026-04-21 23:34 | 28.19227 | -81.84451 | 1172 ft | 79 kts | 127° |
| 2026-04-21 23:34 | 28.18815 | -81.84043 | 1186 ft | 80 kts | 128° |
| 2026-04-21 23:35 | 28.18432 | -81.83576 | 1194 ft | 82 kts | 121° |
| 2026-04-21 23:35 | 28.18079 | -81.83067 | 1191 ft | 82 kts | 121° |
| 2026-04-21 23:35 | 28.17718 | -81.82548 | 1191 ft | 84 kts | 121° |
| 2026-04-21 23:35 | 28.17363 | -81.82034 | 1188 ft | 82 kts | 120° |
| 2026-04-21 23:36 | 28.17027 | -81.81534 | 1185 ft | 80 kts | 120° |
| 2026-04-21 23:36 | 28.16687 | -81.81038 | 1187 ft | 81 kts | 121° |
| 2026-04-21 23:36 | 28.16208 | -81.80720 | 1191 ft | 85 kts | 161° |
| 2026-04-21 23:36 | 28.15590 | -81.80802 | 1185 ft | 95 kts | 181° |
| 2026-04-21 23:37 | 28.14901 | -81.80972 | 1194 ft | 107 kts | 181° |
| 2026-04-21 23:37 | 28.14164 | -81.81148 | 1200 ft | 109 kts | 183° |
| 2026-04-21 23:37 | 28.13424 | -81.81323 | 1199 ft | 106 kts | 183° |
| 2026-04-21 23:37 | 28.12715 | -81.81525 | 1202 ft | 107 kts | 193° |
| 2026-04-21 23:38 | 28.12012 | -81.81900 | 1226 ft | 116 kts | 202° |
| 2026-04-21 23:38 | 28.11355 | -81.82489 | 1218 ft | 123 kts | 221° |
| 2026-04-21 23:38 | 28.10840 | -81.83218 | 1214 ft | 113 kts | 225° |
| 2026-04-21 23:38 | 28.10413 | -81.83923 | 1181 ft | 106 kts | 239° |
| 2026-04-21 23:39 | 28.10171 | -81.84694 | 1175 ft | 103 kts | 245° |
| 2026-04-21 23:39 | 28.09915 | -81.85473 | 1208 ft | 110 kts | 247° |
| 2026-04-21 23:39 | 28.09691 | -81.86328 | 1240 ft | 116 kts | 250° |
| 2026-04-21 23:39 | 28.09479 | -81.87222 | 1223 ft | 119 kts | 251° |
| 2026-04-21 23:40 | 28.09252 | -81.88132 | 1196 ft | 120 kts | 252° |
| 2026-04-21 23:40 | 28.09017 | -81.89046 | 1170 ft | 121 kts | 251° |
| 2026-04-21 23:40 | 28.08780 | -81.89957 | 1124 ft | 121 kts | 250° |
| 2026-04-21 23:40 | 28.08561 | -81.90883 | 1040 ft | 121 kts | 250° |
| 2026-04-21 23:41 | 28.08319 | -81.91788 | 960 ft | 122 kts | 250° |
| 2026-04-21 23:41 | 28.08061 | -81.92694 | 892 ft | 120 kts | 251° |
| 2026-04-21 23:41 | 28.07859 | -81.93600 | 817 ft | 119 kts | 257° |
| 2026-04-21 23:41 | 28.07747 | -81.94495 | 820 ft | 109 kts | 266° |
| 2026-04-21 23:42 | 28.07795 | -81.95334 | 1006 ft | 106 kts | 274° |
| 2026-04-21 23:42 | 28.07790 | -81.96186 | 1127 ft | 109 kts | 267° |
| 2026-04-21 23:42 | 28.07744 | -81.97054 | 1151 ft | 115 kts | 263° |
| 2026-04-21 23:42 | 28.07580 | -81.97940 | 1172 ft | 117 kts | 250° |
| 2026-04-21 23:43 | 28.07206 | -81.98777 | 1195 ft | 118 kts | 233° |
| 2026-04-21 23:43 | 28.06768 | -81.99544 | 1163 ft | 114 kts | 230° |
| 2026-04-21 23:43 | 28.06331 | -82.00299 | 1120 ft | 113 kts | 227° |
| 2026-04-21 23:43 | 28.05853 | -82.00989 | 1084 ft | 113 kts | 221° |
| 2026-04-21 23:44 | 28.05211 | -82.01451 | 1122 ft | 108 kts | 190° |
| 2026-04-21 23:44 | 28.04487 | -82.01597 | 1163 ft | 101 kts | 175° |
| 2026-04-21 23:44 | 28.03814 | -82.01663 | 1209 ft | 96 kts | 166° |
| 2026-04-21 23:44 | 28.03133 | -82.01679 | 1168 ft | 100 kts | 172° |
| 2026-04-21 23:45 | 28.02469 | -82.01746 | 1155 ft | 97 kts | 173° |
| 2026-04-21 23:45 | 28.01113 | -82.01868 | 1139 ft | 94 kts | 172° |
| 2026-04-21 23:45 | 28.00483 | -82.02181 | 1019 ft | 109 kts | 217° |
| 2026-04-21 23:46 | 28.00159 | -82.02963 | 998 ft | 111 kts | 262° |
| 2026-04-21 23:46 | 28.00124 | -82.03891 | 945 ft | 124 kts | 264° |
| 2026-04-21 23:46 | 27.99861 | -82.04769 | 842 ft | 116 kts | 221° |
| 2026-04-21 23:46 | 27.99168 | -82.04928 | 677 ft | 101 kts | 139° |
| 2026-04-21 23:47 | 27.98989 | -82.04239 | 493 ft | 95 kts | 84° |
| 2026-04-21 23:47 | 27.99023 | -82.03518 | 377 ft | 90 kts | 89° |
| 2026-04-21 23:47 | 27.99027 | -82.02826 | 245 ft | 84 kts | 89° |
| 2026-04-21 23:47 | 27.99029 | -82.02188 | 194 ft | 81 kts | 89° |
| 2026-04-21 23:48 | 27.99039 | -82.01589 | 149 ft | 68 kts | 90° |
| 2026-04-21 23:48 | 27.99040 | -82.01294 | 143 ft | 46 kts | 89° |
| 2026-04-21 23:48 | 27.99041 | -82.01030 | 143 ft | 26 kts | 88° |
| 2026-04-21 23:48 | 27.99040 | -82.00832 | 143 ft | 20 kts | 93° |
| 2026-04-21 23:49 | 27.98976 | -82.00767 | 143 ft | 15 kts | 168° |
| 2026-04-21 23:49 | 27.98844 | -82.00757 | 142 ft | 20 kts | 178° |
| 2026-04-21 23:49 | 27.98749 | -82.00783 | 142 ft | 16 kts | 263° |
| 2026-04-21 23:49 | 27.98745 | -82.00927 | 142 ft | 16 kts | 267° |
| 2026-04-21 23:50 | 27.98743 | -82.01015 | 143 ft | 13 kts | 268° |
| 2026-04-21 23:50 | 27.98741 | -82.01123 | 143 ft | 17 kts | 271° |
| 2026-04-21 23:50 | 27.98737 | -82.01249 | 143 ft | 17 kts | 267° |
| 2026-04-21 23:50 | 27.98723 | -82.01388 | 143 ft | 15 kts | 224° |
| 2026-04-21 23:51 | 27.98659 | -82.01431 | 143 ft | 10 kts | 201° |
| 2026-04-21 23:51 | 27.98606 | -82.01428 | 143 ft | 6 kts | 151° |
| 2026-04-21 23:51 | 27.98570 | -82.01404 | 143 ft | 7 kts | 175° |
| 2026-04-21 23:51 | 27.98522 | -82.01399 | 143 ft | 7 kts | 175° |
| 2026-04-21 23:52 | 27.98478 | -82.01380 | 143 ft | 1 kts | 131° |
| 2026-04-21 23:52 | 27.98464 | -82.01350 | 143 ft | 4 kts | 84° |
| 2026-04-21 23:52 | 27.98470 | -82.01337 | 143 ft | 0 kts | 44° |
| 2026-04-21 23:52 | 27.98473 | -82.01334 | 143 ft | 0 kts | 32° |